sensor_id;sensor_type;location;lat;lon;timestamp;pressure;altitude;pressure_sealevel;temperature;humidity
14242;BME280;7205;50.864;12.766;2023-04-27T00:00:27;97818.56;;;4.61;60.31
14242;BME280;7205;50.864;12.766;2023-04-27T00:02:54;97826.81;;;4.56;60.57
14242;BME280;7205;50.864;12.766;2023-04-27T00:05:21;97829.72;;;4.53;60.37
14242;BME280;7205;50.864;12.766;2023-04-27T00:07:48;97821.31;;;4.50;60.58
14242;BME280;7205;50.864;12.766;2023-04-27T00:10:16;97822.50;;;4.46;60.77
14242;BME280;7205;50.864;12.766;2023-04-27T00:12:43;97821.81;;;4.44;60.99
14242;BME280;7205;50.864;12.766;2023-04-27T00:15:10;97819.59;;;4.39;60.90
14242;BME280;7205;50.864;12.766;2023-04-27T00:17:37;97816.28;;;4.37;61.06
14242;BME280;7205;50.864;12.766;2023-04-27T00:20:04;97817.41;;;4.35;61.58
14242;BME280;7205;50.864;12.766;2023-04-27T00:22:33;97813.38;;;4.31;61.53
14242;BME280;7205;50.864;12.766;2023-04-27T00:25:00;97815.28;;;4.29;61.43
14242;BME280;7205;50.864;12.766;2023-04-27T00:27:28;97819.16;;;4.25;61.56
14242;BME280;7205;50.864;12.766;2023-04-27T00:29:55;97815.00;;;4.22;62.13
14242;BME280;7205;50.864;12.766;2023-04-27T00:32:21;97821.47;;;4.18;61.62
14242;BME280;7205;50.864;12.766;2023-04-27T00:34:48;97820.06;;;4.14;62.56
14242;BME280;7205;50.864;12.766;2023-04-27T00:37:15;97821.16;;;4.12;62.12
14242;BME280;7205;50.864;12.766;2023-04-27T00:39:44;97820.47;;;4.10;62.22
14242;BME280;7205;50.864;12.766;2023-04-27T00:42:12;97826.75;;;4.07;62.55
14242;BME280;7205;50.864;12.766;2023-04-27T00:44:45;97827.88;;;4.05;62.57
14242;BME280;7205;50.864;12.766;2023-04-27T00:47:15;97830.59;;;4.03;62.41
14242;BME280;7205;50.864;12.766;2023-04-27T00:49:43;97830.88;;;4.00;63.02
14242;BME280;7205;50.864;12.766;2023-04-27T00:52:10;97827.69;;;3.97;63.00
14242;BME280;7205;50.864;12.766;2023-04-27T00:54:37;97833.03;;;3.95;62.94
14242;BME280;7205;50.864;12.766;2023-04-27T00:57:04;97835.22;;;3.90;63.33
14242;BME280;7205;50.864;12.766;2023-04-27T00:59:31;97832.72;;;3.88;63.44
14242;BME280;7205;50.864;12.766;2023-04-27T01:01:59;97833.81;;;3.86;63.23
14242;BME280;7205;50.864;12.766;2023-04-27T01:04:27;97837.50;;;3.83;63.42
14242;BME280;7205;50.864;12.766;2023-04-27T01:06:54;97835.16;;;3.80;63.58
14242;BME280;7205;50.864;12.766;2023-04-27T01:09:21;97836.94;;;3.80;64.03
14242;BME280;7205;50.864;12.766;2023-04-27T01:11:49;97833.63;;;3.78;64.37
14242;BME280;7205;50.864;12.766;2023-04-27T01:14:16;97831.28;;;3.75;63.99
14242;BME280;7205;50.864;12.766;2023-04-27T01:16:43;97834.81;;;3.74;64.32
14242;BME280;7205;50.864;12.766;2023-04-27T01:19:12;97840.19;;;3.72;64.00
14242;BME280;7205;50.864;12.766;2023-04-27T01:21:39;97837.13;;;3.67;64.05
14242;BME280;7205;50.864;12.766;2023-04-27T01:24:08;97833.00;;;3.65;64.07
14242;BME280;7205;50.864;12.766;2023-04-27T01:26:36;97830.75;;;3.60;64.71
14242;BME280;7205;50.864;12.766;2023-04-27T01:29:03;97833.38;;;3.60;64.83
14242;BME280;7205;50.864;12.766;2023-04-27T01:31:30;97834.59;;;3.56;64.80
14242;BME280;7205;50.864;12.766;2023-04-27T01:33:57;97828.66;;;3.54;64.86
14242;BME280;7205;50.864;12.766;2023-04-27T01:36:24;97832.91;;;3.55;65.25
14242;BME280;7205;50.864;12.766;2023-04-27T01:38:54;97834.28;;;3.50;65.30
14242;BME280;7205;50.864;12.766;2023-04-27T01:41:23;97832.59;;;3.49;65.14
14242;BME280;7205;50.864;12.766;2023-04-27T01:43:50;97828.84;;;3.42;65.28
14242;BME280;7205;50.864;12.766;2023-04-27T01:46:16;97836.78;;;3.40;65.02
14242;BME280;7205;50.864;12.766;2023-04-27T01:48:43;97836.22;;;3.37;65.14
14242;BME280;7205;50.864;12.766;2023-04-27T01:51:10;97836.47;;;3.34;65.57
14242;BME280;7205;50.864;12.766;2023-04-27T01:53:37;97840.19;;;3.31;65.82
14242;BME280;7205;50.864;12.766;2023-04-27T01:56:04;97837.78;;;3.28;66.04
14242;BME280;7205;50.864;12.766;2023-04-27T01:58:33;97833.66;;;3.26;65.77
14242;BME280;7205;50.864;12.766;2023-04-27T02:01:00;97838.19;;;3.24;65.55
14242;BME280;7205;50.864;12.766;2023-04-27T02:03:27;97838.44;;;3.21;66.39
14242;BME280;7205;50.864;12.766;2023-04-27T02:05:54;97837.00;;;3.17;65.99
14242;BME280;7205;50.864;12.766;2023-04-27T02:08:21;97837.25;;;3.14;66.31
14242;BME280;7205;50.864;12.766;2023-04-27T02:10:48;97846.06;;;3.13;66.54
14242;BME280;7205;50.864;12.766;2023-04-27T02:13:16;97847.13;;;3.10;66.43
14242;BME280;7205;50.864;12.766;2023-04-27T02:15:44;97848.06;;;3.09;66.71
14242;BME280;7205;50.864;12.766;2023-04-27T02:18:11;97849.97;;;3.07;66.53
14242;BME280;7205;50.864;12.766;2023-04-27T02:20:38;97845.84;;;3.05;66.97
14242;BME280;7205;50.864;12.766;2023-04-27T02:23:05;97857.22;;;3.04;67.11
14242;BME280;7205;50.864;12.766;2023-04-27T02:25:35;97860.78;;;3.03;66.88
14242;BME280;7205;50.864;12.766;2023-04-27T02:28:02;97844.69;;;2.87;67.26
14242;BME280;7205;50.864;12.766;2023-04-27T02:30:29;97844.81;;;2.85;67.71
14242;BME280;7205;50.864;12.766;2023-04-27T02:32:58;97840.69;;;2.83;67.81
14242;BME280;7205;50.864;12.766;2023-04-27T02:35:26;97855.13;;;2.87;68.40
14242;BME280;7205;50.864;12.766;2023-04-27T02:37:52;97850.41;;;2.81;68.16
14242;BME280;7205;50.864;12.766;2023-04-27T02:40:19;97853.59;;;2.84;68.48
14242;BME280;7205;50.864;12.766;2023-04-27T02:42:46;97847.22;;;2.77;68.36
14242;BME280;7205;50.864;12.766;2023-04-27T02:45:13;97856.69;;;2.89;68.16
14242;BME280;7205;50.864;12.766;2023-04-27T02:47:40;97860.94;;;2.90;68.70
14242;BME280;7205;50.864;12.766;2023-04-27T02:50:09;97860.13;;;2.90;68.76
14242;BME280;7205;50.864;12.766;2023-04-27T02:52:38;97853.28;;;2.78;68.68
14242;BME280;7205;50.864;12.766;2023-04-27T02:55:05;97862.59;;;2.80;68.92
14242;BME280;7205;50.864;12.766;2023-04-27T02:57:32;97863.69;;;2.78;68.71
14242;BME280;7205;50.864;12.766;2023-04-27T02:59:59;97865.47;;;2.77;69.19
14242;BME280;7205;50.864;12.766;2023-04-27T03:02:26;97861.34;;;2.75;69.14
14242;BME280;7205;50.864;12.766;2023-04-27T03:04:53;97865.59;;;2.76;69.12
14242;BME280;7205;50.864;12.766;2023-04-27T03:07:21;97871.97;;;2.72;68.98
14242;BME280;7205;50.864;12.766;2023-04-27T03:09:48;97865.59;;;2.76;69.34
14242;BME280;7205;50.864;12.766;2023-04-27T03:12:15;97869.72;;;2.78;68.81
14242;BME280;7205;50.864;12.766;2023-04-27T03:14:42;97871.75;;;2.75;68.85
14242;BME280;7205;50.864;12.766;2023-04-27T03:17:09;97870.22;;;2.72;68.72
14242;BME280;7205;50.864;12.766;2023-04-27T03:19:36;97875.31;;;2.74;69.04
14242;BME280;7205;50.864;12.766;2023-04-27T03:22:03;97874.59;;;2.72;69.28
14242;BME280;7205;50.864;12.766;2023-04-27T03:24:31;97881.47;;;2.73;69.08
14242;BME280;7205;50.864;12.766;2023-04-27T03:26:58;97872.72;;;2.63;69.22
14242;BME280;7205;50.864;12.766;2023-04-27T03:29:26;97872.97;;;2.60;69.46
14242;BME280;7205;50.864;12.766;2023-04-27T03:31:53;97882.69;;;2.58;69.55
14242;BME280;7205;50.864;12.766;2023-04-27T03:34:20;97881.00;;;2.56;69.58
14242;BME280;7205;50.864;12.766;2023-04-27T03:36:47;97892.97;;;2.59;69.49
14242;BME280;7205;50.864;12.766;2023-04-27T03:39:15;97895.22;;;2.64;69.62
14242;BME280;7205;50.864;12.766;2023-04-27T03:41:43;97898.66;;;2.64;69.54
14242;BME280;7205;50.864;12.766;2023-04-27T03:44:10;97893.44;;;2.64;69.64
14242;BME280;7205;50.864;12.766;2023-04-27T03:46:37;97905.66;;;2.64;70.03
14242;BME280;7205;50.864;12.766;2023-04-27T03:49:04;97900.44;;;2.64;69.58
14242;BME280;7205;50.864;12.766;2023-04-27T03:51:32;97903.03;;;2.64;69.96
14242;BME280;7205;50.864;12.766;2023-04-27T03:53:59;97893.44;;;2.53;70.10
14242;BME280;7205;50.864;12.766;2023-04-27T03:56:26;97910.25;;;2.60;70.70
14242;BME280;7205;50.864;12.766;2023-04-27T03:58:56;97908.25;;;2.64;70.55
14242;BME280;7205;50.864;12.766;2023-04-27T04:01:30;97909.09;;;2.64;70.64
14242;BME280;7205;50.864;12.766;2023-04-27T04:03:58;97913.94;;;2.69;70.61
14242;BME280;7205;50.864;12.766;2023-04-27T04:06:25;97913.81;;;2.70;70.86
14242;BME280;7205;50.864;12.766;2023-04-27T04:08:52;97917.00;;;2.74;71.15
14242;BME280;7205;50.864;12.766;2023-04-27T04:11:19;97920.09;;;2.79;71.59
14242;BME280;7205;50.864;12.766;2023-04-27T04:13:48;97926.34;;;2.87;71.86
14242;BME280;7205;50.864;12.766;2023-04-27T04:16:16;97927.28;;;2.97;72.21
14242;BME280;7205;50.864;12.766;2023-04-27T04:18:43;97932.38;;;3.10;72.40
14242;BME280;7205;50.864;12.766;2023-04-27T04:21:10;97927.97;;;3.21;72.30
14242;BME280;7205;50.864;12.766;2023-04-27T04:23:37;97924.13;;;3.36;73.18
14242;BME280;7205;50.864;12.766;2023-04-27T04:26:06;97932.63;;;3.49;73.24
14242;BME280;7205;50.864;12.766;2023-04-27T04:28:34;97936.34;;;3.67;73.14
14242;BME280;7205;50.864;12.766;2023-04-27T04:31:01;97935.09;;;3.82;73.91
14242;BME280;7205;50.864;12.766;2023-04-27T04:33:31;97927.53;;;4.00;73.24
14242;BME280;7205;50.864;12.766;2023-04-27T04:35:58;97919.88;;;4.08;72.66
14242;BME280;7205;50.864;12.766;2023-04-27T04:38:25;97915.41;;;4.20;72.41
14242;BME280;7205;50.864;12.766;2023-04-27T04:40:52;97919.84;;;4.29;72.45
14242;BME280;7205;50.864;12.766;2023-04-27T04:43:19;97927.75;;;4.38;72.42
14242;BME280;7205;50.864;12.766;2023-04-27T04:45:47;97923.53;;;4.47;72.04
14242;BME280;7205;50.864;12.766;2023-04-27T04:48:14;97933.19;;;4.56;72.09
14242;BME280;7205;50.864;12.766;2023-04-27T04:50:42;97928.81;;;4.66;71.81
14242;BME280;7205;50.864;12.766;2023-04-27T04:53:11;97932.31;;;4.76;71.59
14242;BME280;7205;50.864;12.766;2023-04-27T04:55:38;97930.69;;;4.84;71.17
14242;BME280;7205;50.864;12.766;2023-04-27T04:58:06;97932.53;;;4.93;71.54
14242;BME280;7205;50.864;12.766;2023-04-27T05:00:33;97928.28;;;5.02;70.78
14242;BME280;7205;50.864;12.766;2023-04-27T05:03:00;97936.84;;;5.13;70.73
14242;BME280;7205;50.864;12.766;2023-04-27T05:05:27;97931.63;;;5.23;71.06
14242;BME280;7205;50.864;12.766;2023-04-27T05:07:55;97929.00;;;5.33;70.85
14242;BME280;7205;50.864;12.766;2023-04-27T05:10:22;97930.41;;;5.46;70.23
14242;BME280;7205;50.864;12.766;2023-04-27T05:12:49;97938.97;;;5.58;70.43
14242;BME280;7205;50.864;12.766;2023-04-27T05:15:15;97942.31;;;5.69;70.09
14242;BME280;7205;50.864;12.766;2023-04-27T05:17:42;97927.88;;;5.84;69.77
14242;BME280;7205;50.864;12.766;2023-04-27T05:20:10;97930.72;;;6.00;69.80
14242;BME280;7205;50.864;12.766;2023-04-27T05:22:36;97936.06;;;6.18;70.11
14242;BME280;7205;50.864;12.766;2023-04-27T05:25:06;97931.78;;;6.36;70.22
14242;BME280;7205;50.864;12.766;2023-04-27T05:27:32;97928.94;;;6.57;70.98
14242;BME280;7205;50.864;12.766;2023-04-27T05:30:00;97921.16;;;6.74;70.60
14242;BME280;7205;50.864;12.766;2023-04-27T05:32:26;97923.28;;;6.88;70.24
14242;BME280;7205;50.864;12.766;2023-04-27T05:34:53;97917.88;;;6.99;69.27
14242;BME280;7205;50.864;12.766;2023-04-27T05:37:20;97927.63;;;7.07;69.53
14242;BME280;7205;50.864;12.766;2023-04-27T05:39:47;97934.34;;;7.19;68.93
14242;BME280;7205;50.864;12.766;2023-04-27T05:42:15;97922.28;;;7.26;68.34
14242;BME280;7205;50.864;12.766;2023-04-27T05:44:42;97926.13;;;7.31;68.13
14242;BME280;7205;50.864;12.766;2023-04-27T05:47:09;97922.91;;;7.37;67.75
14242;BME280;7205;50.864;12.766;2023-04-27T05:49:36;97928.69;;;7.41;67.34
14242;BME280;7205;50.864;12.766;2023-04-27T05:52:03;97926.59;;;7.44;67.01
14242;BME280;7205;50.864;12.766;2023-04-27T05:54:30;97927.28;;;7.46;66.64
14242;BME280;7205;50.864;12.766;2023-04-27T05:56:56;97920.31;;;7.55;66.19
14242;BME280;7205;50.864;12.766;2023-04-27T05:59:25;97923.81;;;7.63;65.40
14242;BME280;7205;50.864;12.766;2023-04-27T06:01:53;97919.59;;;7.71;64.62
14242;BME280;7205;50.864;12.766;2023-04-27T06:04:21;97926.75;;;7.78;64.05
14242;BME280;7205;50.864;12.766;2023-04-27T06:06:48;97920.34;;;7.81;63.24
14242;BME280;7205;50.864;12.766;2023-04-27T06:09:15;97921.19;;;7.81;62.30
14242;BME280;7205;50.864;12.766;2023-04-27T06:11:41;97919.25;;;7.83;61.31
14242;BME280;7205;50.864;12.766;2023-04-27T06:14:09;97922.56;;;7.85;61.01
14242;BME280;7205;50.864;12.766;2023-04-27T06:16:37;97920.13;;;7.92;60.33
14242;BME280;7205;50.864;12.766;2023-04-27T06:19:05;97921.03;;;8.00;59.96
14242;BME280;7205;50.864;12.766;2023-04-27T06:21:32;97924.41;;;8.10;59.43
14242;BME280;7205;50.864;12.766;2023-04-27T06:23:59;97927.50;;;8.23;58.44
14242;BME280;7205;50.864;12.766;2023-04-27T06:26:26;97927.75;;;8.38;58.05
14242;BME280;7205;50.864;12.766;2023-04-27T06:28:53;97921.09;;;8.51;57.06
14242;BME280;7205;50.864;12.766;2023-04-27T06:31:20;97929.06;;;8.67;55.73
14242;BME280;7205;50.864;12.766;2023-04-27T06:33:48;97935.06;;;8.77;54.82
14242;BME280;7205;50.864;12.766;2023-04-27T06:36:15;97933.13;;;8.87;53.64
14242;BME280;7205;50.864;12.766;2023-04-27T06:38:42;97936.47;;;8.98;53.61
14242;BME280;7205;50.864;12.766;2023-04-27T06:41:09;97926.16;;;9.04;53.39
14242;BME280;7205;50.864;12.766;2023-04-27T06:43:35;97934.75;;;9.14;53.27
14242;BME280;7205;50.864;12.766;2023-04-27T06:46:03;97930.97;;;9.17;52.86
14242;BME280;7205;50.864;12.766;2023-04-27T06:48:30;97939.03;;;9.15;52.29
14242;BME280;7205;50.864;12.766;2023-04-27T06:50:58;97944.09;;;9.09;51.33
14242;BME280;7205;50.864;12.766;2023-04-27T06:53:25;97943.91;;;9.02;51.28
14242;BME280;7205;50.864;12.766;2023-04-27T06:55:52;97953.41;;;8.95;51.49
14242;BME280;7205;50.864;12.766;2023-04-27T06:58:19;97953.38;;;8.87;51.19
14242;BME280;7205;50.864;12.766;2023-04-27T07:00:46;97952.34;;;8.80;50.95
14242;BME280;7205;50.864;12.766;2023-04-27T07:03:13;97946.06;;;8.73;51.41
14242;BME280;7205;50.864;12.766;2023-04-27T07:05:40;97959.03;;;8.66;51.38
14242;BME280;7205;50.864;12.766;2023-04-27T07:08:08;97962.28;;;8.60;51.20
14242;BME280;7205;50.864;12.766;2023-04-27T07:10:35;97957.78;;;8.53;50.88
14242;BME280;7205;50.864;12.766;2023-04-27T07:13:02;97962.00;;;8.46;50.75
14242;BME280;7205;50.864;12.766;2023-04-27T07:15:29;97962.31;;;8.43;51.00
14242;BME280;7205;50.864;12.766;2023-04-27T07:17:56;97961.78;;;8.39;51.25
14242;BME280;7205;50.864;12.766;2023-04-27T07:20:24;97960.47;;;8.35;51.64
14242;BME280;7205;50.864;12.766;2023-04-27T07:22:51;97955.03;;;8.37;52.04
14242;BME280;7205;50.864;12.766;2023-04-27T07:25:19;97969.84;;;8.38;51.51
14242;BME280;7205;50.864;12.766;2023-04-27T07:27:47;97958.47;;;8.37;51.65
14242;BME280;7205;50.864;12.766;2023-04-27T07:30:13;97960.69;;;8.42;51.67
14242;BME280;7205;50.864;12.766;2023-04-27T07:32:42;97955.41;;;8.42;51.87
14242;BME280;7205;50.864;12.766;2023-04-27T07:35:09;97974.63;;;8.42;51.60
14242;BME280;7205;50.864;12.766;2023-04-27T07:37:36;97965.78;;;8.43;51.29
14242;BME280;7205;50.864;12.766;2023-04-27T07:40:05;97970.72;;;8.46;51.81
14242;BME280;7205;50.864;12.766;2023-04-27T07:42:42;97967.78;;;8.49;51.31
14242;BME280;7205;50.864;12.766;2023-04-27T07:45:09;97978.66;;;8.54;51.33
14242;BME280;7205;50.864;12.766;2023-04-27T07:47:36;97980.72;;;8.60;51.14
14242;BME280;7205;50.864;12.766;2023-04-27T07:50:04;97973.97;;;8.66;50.28
14242;BME280;7205;50.864;12.766;2023-04-27T07:52:31;97978.66;;;8.72;50.36
14242;BME280;7205;50.864;12.766;2023-04-27T07:54:58;97974.69;;;8.76;50.41
14242;BME280;7205;50.864;12.766;2023-04-27T07:57:25;97972.25;;;8.82;50.45
14242;BME280;7205;50.864;12.766;2023-04-27T07:59:53;97982.72;;;8.92;50.08
14242;BME280;7205;50.864;12.766;2023-04-27T08:02:20;97972.88;;;9.02;50.49
14242;BME280;7205;50.864;12.766;2023-04-27T08:04:48;97974.75;;;9.18;50.30
14242;BME280;7205;50.864;12.766;2023-04-27T08:07:16;97973.84;;;9.35;49.56
14242;BME280;7205;50.864;12.766;2023-04-27T08:09:43;97978.50;;;9.49;49.23
14242;BME280;7205;50.864;12.766;2023-04-27T08:12:10;97973.09;;;9.58;48.31
14242;BME280;7205;50.864;12.766;2023-04-27T08:14:37;97977.75;;;9.64;48.11
14242;BME280;7205;50.864;12.766;2023-04-27T08:17:05;97976.59;;;9.67;47.70
14242;BME280;7205;50.864;12.766;2023-04-27T08:19:32;97976.91;;;9.64;47.03
14242;BME280;7205;50.864;12.766;2023-04-27T08:21:59;97975.41;;;9.61;47.10
14242;BME280;7205;50.864;12.766;2023-04-27T08:24:26;97977.75;;;9.64;47.33
14242;BME280;7205;50.864;12.766;2023-04-27T08:26:53;97973.94;;;9.67;47.66
14242;BME280;7205;50.864;12.766;2023-04-27T08:29:19;97977.41;;;9.67;47.44
14242;BME280;7205;50.864;12.766;2023-04-27T08:31:48;97975.91;;;9.65;47.19
14242;BME280;7205;50.864;12.766;2023-04-27T08:34:16;97975.91;;;9.65;47.18
14242;BME280;7205;50.864;12.766;2023-04-27T08:36:43;97969.50;;;9.67;46.72
14242;BME280;7205;50.864;12.766;2023-04-27T08:39:10;97978.56;;;9.73;46.54
14242;BME280;7205;50.864;12.766;2023-04-27T08:41:41;97974.97;;;9.74;46.37
14242;BME280;7205;50.864;12.766;2023-04-27T08:44:08;97973.16;;;9.74;45.92
14242;BME280;7205;50.864;12.766;2023-04-27T08:46:36;97972.31;;;9.74;46.02
14242;BME280;7205;50.864;12.766;2023-04-27T08:49:03;97967.22;;;9.72;46.06
14242;BME280;7205;50.864;12.766;2023-04-27T08:51:31;97974.13;;;9.73;45.84
14242;BME280;7205;50.864;12.766;2023-04-27T08:53:58;97973.97;;;9.75;45.22
14242;BME280;7205;50.864;12.766;2023-04-27T08:56:27;97972.16;;;9.75;45.12
14242;BME280;7205;50.864;12.766;2023-04-27T08:58:56;97969.03;;;9.80;45.27
14242;BME280;7205;50.864;12.766;2023-04-27T09:01:23;97970.53;;;9.90;45.46
14242;BME280;7205;50.864;12.766;2023-04-27T09:03:54;97980.47;;;10.04;44.94
14242;BME280;7205;50.864;12.766;2023-04-27T09:06:28;97971.91;;;10.19;45.26
14242;BME280;7205;50.864;12.766;2023-04-27T09:08:58;97979.19;;;10.33;45.56
14242;BME280;7205;50.864;12.766;2023-04-27T09:11:29;97970.41;;;10.40;44.70
14242;BME280;7205;50.864;12.766;2023-04-27T09:13:57;97965.28;;;10.47;44.61
14242;BME280;7205;50.864;12.766;2023-04-27T09:16:25;97984.44;;;10.49;42.99
14242;BME280;7205;50.864;12.766;2023-04-27T09:18:54;97969.44;;;10.49;42.57
14242;BME280;7205;50.864;12.766;2023-04-27T09:21:22;97971.72;;;10.52;42.17
14242;BME280;7205;50.864;12.766;2023-04-27T09:23:49;97971.56;;;10.54;42.41
14242;BME280;7205;50.864;12.766;2023-04-27T09:26:21;97968.44;;;10.58;42.25
14242;BME280;7205;50.864;12.766;2023-04-27T09:28:49;97962.81;;;10.61;41.61
14242;BME280;7205;50.864;12.766;2023-04-27T09:31:17;97961.16;;;10.60;41.30
14242;BME280;7205;50.864;12.766;2023-04-27T09:33:44;97970.09;;;10.59;41.67
14242;BME280;7205;50.864;12.766;2023-04-27T09:36:13;97975.19;;;10.61;41.29
14242;BME280;7205;50.864;12.766;2023-04-27T09:38:40;97961.97;;;10.69;41.31
14242;BME280;7205;50.864;12.766;2023-04-27T09:41:07;97966.09;;;10.79;41.82
14242;BME280;7205;50.864;12.766;2023-04-27T09:43:36;97963.22;;;10.97;41.75
14242;BME280;7205;50.864;12.766;2023-04-27T09:46:04;97960.69;;;11.19;42.01
14242;BME280;7205;50.864;12.766;2023-04-27T09:48:31;97956.09;;;11.44;41.38
14242;BME280;7205;50.864;12.766;2023-04-27T09:50:58;97954.53;;;11.66;40.83
14242;BME280;7205;50.864;12.766;2023-04-27T09:53:28;97948.03;;;11.76;40.40
14242;BME280;7205;50.864;12.766;2023-04-27T09:56:10;97945.44;;;11.91;40.63
14242;BME280;7205;50.864;12.766;2023-04-27T09:58:58;97945.00;;;12.10;40.54
14242;BME280;7205;50.864;12.766;2023-04-27T10:01:36;97950.50;;;12.23;40.27
14242;BME280;7205;50.864;12.766;2023-04-27T10:04:13;97954.09;;;12.30;39.63
14242;BME280;7205;50.864;12.766;2023-04-27T10:06:58;97945.50;;;12.28;38.74
14242;BME280;7205;50.864;12.766;2023-04-27T10:09:26;97943.56;;;12.22;38.80
14242;BME280;7205;50.864;12.766;2023-04-27T10:12:13;97938.06;;;12.09;38.45
14242;BME280;7205;50.864;12.766;2023-04-27T10:14:49;97946.56;;;11.96;38.52
14242;BME280;7205;50.864;12.766;2023-04-27T10:17:17;97946.63;;;11.88;39.13
14242;BME280;7205;50.864;12.766;2023-04-27T10:19:54;97932.94;;;11.85;39.55
14242;BME280;7205;50.864;12.766;2023-04-27T10:22:35;97944.00;;;11.88;39.94
14242;BME280;7205;50.864;12.766;2023-04-27T10:25:12;97948.09;;;11.91;39.34
14242;BME280;7205;50.864;12.766;2023-04-27T10:27:39;97941.66;;;11.93;39.18
14242;BME280;7205;50.864;12.766;2023-04-27T10:30:10;97944.47;;;11.92;38.53
14242;BME280;7205;50.864;12.766;2023-04-27T10:32:37;97949.47;;;11.87;38.57
14242;BME280;7205;50.864;12.766;2023-04-27T10:35:05;97943.75;;;11.75;37.78
14242;BME280;7205;50.864;12.766;2023-04-27T10:37:38;97944.78;;;11.66;38.45
14242;BME280;7205;50.864;12.766;2023-04-27T10:40:07;97936.84;;;11.66;38.98
14242;BME280;7205;50.864;12.766;2023-04-27T10:42:35;97942.25;;;11.73;38.69
14242;BME280;7205;50.864;12.766;2023-04-27T10:45:02;97941.22;;;11.82;39.16
14242;BME280;7205;50.864;12.766;2023-04-27T10:47:39;97939.66;;;11.95;38.77
14242;BME280;7205;50.864;12.766;2023-04-27T10:50:07;97936.94;;;12.03;38.50
14242;BME280;7205;50.864;12.766;2023-04-27T10:52:42;97938.06;;;12.09;38.46
14242;BME280;7205;50.864;12.766;2023-04-27T10:55:14;97942.94;;;12.20;38.11
14242;BME280;7205;50.864;12.766;2023-04-27T10:57:45;97933.78;;;12.22;38.20
14242;BME280;7205;50.864;12.766;2023-04-27T11:00:14;97928.69;;;12.21;37.85
14242;BME280;7205;50.864;12.766;2023-04-27T11:02:43;97921.47;;;12.15;37.71
14242;BME280;7205;50.864;12.766;2023-04-27T11:05:16;97930.63;;;12.04;37.67
14242;BME280;7205;50.864;12.766;2023-04-27T11:07:43;97916.81;;;11.94;37.76
14242;BME280;7205;50.864;12.766;2023-04-27T11:10:14;97925.19;;;11.83;37.79
14242;BME280;7205;50.864;12.766;2023-04-27T11:12:41;97932.50;;;11.73;37.81
14242;BME280;7205;50.864;12.766;2023-04-27T11:15:09;97923.44;;;11.68;37.86
14242;BME280;7205;50.864;12.766;2023-04-27T11:17:36;97933.03;;;11.69;38.73
14242;BME280;7205;50.864;12.766;2023-04-27T11:20:05;97933.16;;;11.75;38.54
14242;BME280;7205;50.864;12.766;2023-04-27T11:22:42;97924.88;;;11.78;37.92
14242;BME280;7205;50.864;12.766;2023-04-27T11:25:09;97930.94;;;11.87;38.47
14242;BME280;7205;50.864;12.766;2023-04-27T11:27:37;97934.84;;;11.99;38.90
14242;BME280;7205;50.864;12.766;2023-04-27T11:30:05;97940.16;;;12.13;38.84
14242;BME280;7205;50.864;12.766;2023-04-27T11:32:35;97944.84;;;12.26;38.66
14242;BME280;7205;50.864;12.766;2023-04-27T11:35:04;97928.56;;;12.37;38.19
14242;BME280;7205;50.864;12.766;2023-04-27T11:37:31;97940.81;;;12.52;38.42
14242;BME280;7205;50.864;12.766;2023-04-27T11:39:59;97935.38;;;12.69;37.74
14242;BME280;7205;50.864;12.766;2023-04-27T11:42:27;97939.84;;;12.83;37.08
14242;BME280;7205;50.864;12.766;2023-04-27T11:44:56;97941.88;;;12.95;37.17
14242;BME280;7205;50.864;12.766;2023-04-27T11:47:27;97928.03;;;13.08;36.94
14242;BME280;7205;50.864;12.766;2023-04-27T11:49:55;97935.22;;;13.28;37.16
14242;BME280;7205;50.864;12.766;2023-04-27T11:52:27;97932.44;;;13.51;36.94
14242;BME280;7205;50.864;12.766;2023-04-27T11:54:54;97930.66;;;13.72;36.92
14242;BME280;7205;50.864;12.766;2023-04-27T11:57:25;97938.44;;;13.95;36.30
14242;BME280;7205;50.864;12.766;2023-04-27T11:59:53;97929.78;;;14.08;35.98
14242;BME280;7205;50.864;12.766;2023-04-27T12:02:20;97932.94;;;14.18;35.77
14242;BME280;7205;50.864;12.766;2023-04-27T12:04:47;97943.31;;;14.13;34.89
14242;BME280;7205;50.864;12.766;2023-04-27T12:07:14;97942.09;;;13.94;34.74
14242;BME280;7205;50.864;12.766;2023-04-27T12:09:42;97936.22;;;13.77;34.99
14242;BME280;7205;50.864;12.766;2023-04-27T12:12:10;97944.66;;;13.66;35.10
14242;BME280;7205;50.864;12.766;2023-04-27T12:14:37;97940.94;;;13.61;35.50
14242;BME280;7205;50.864;12.766;2023-04-27T12:17:04;97938.66;;;13.58;35.35
14242;BME280;7205;50.864;12.766;2023-04-27T12:19:31;97931.94;;;13.62;35.71
14242;BME280;7205;50.864;12.766;2023-04-27T12:21:58;97938.16;;;13.69;36.05
14242;BME280;7205;50.864;12.766;2023-04-27T12:24:25;97951.44;;;13.69;35.69
14242;BME280;7205;50.864;12.766;2023-04-27T12:26:55;97929.16;;;13.49;35.48
14242;BME280;7205;50.864;12.766;2023-04-27T12:29:22;97929.09;;;13.28;36.04
14242;BME280;7205;50.864;12.766;2023-04-27T12:31:49;97926.44;;;13.13;36.37
14242;BME280;7205;50.864;12.766;2023-04-27T12:34:16;97930.03;;;13.06;36.53
14242;BME280;7205;50.864;12.766;2023-04-27T12:36:43;97934.19;;;13.00;37.05
14242;BME280;7205;50.864;12.766;2023-04-27T12:39:14;97927.59;;;12.96;37.18
14242;BME280;7205;50.864;12.766;2023-04-27T12:41:42;97928.34;;;12.90;36.96
14242;BME280;7205;50.864;12.766;2023-04-27T12:44:10;97932.72;;;12.83;37.38
14242;BME280;7205;50.864;12.766;2023-04-27T12:46:38;97927.59;;;12.82;37.87
14242;BME280;7205;50.864;12.766;2023-04-27T12:49:05;97928.44;;;12.82;37.64
14242;BME280;7205;50.864;12.766;2023-04-27T12:51:32;97931.09;;;12.82;37.42
14242;BME280;7205;50.864;12.766;2023-04-27T12:53:59;97920.84;;;12.79;37.46
14242;BME280;7205;50.864;12.766;2023-04-27T12:56:26;97925.97;;;12.81;37.79
14242;BME280;7205;50.864;12.766;2023-04-27T12:58:53;97927.97;;;12.79;37.41
14242;BME280;7205;50.864;12.766;2023-04-27T13:01:22;97927.69;;;12.74;37.32
14242;BME280;7205;50.864;12.766;2023-04-27T13:03:51;97920.91;;;12.71;37.45
14242;BME280;7205;50.864;12.766;2023-04-27T13:06:18;97933.00;;;12.74;37.75
14242;BME280;7205;50.864;12.766;2023-04-27T13:08:45;97926.88;;;12.73;37.58
14242;BME280;7205;50.864;12.766;2023-04-27T13:11:12;97937.47;;;12.73;37.31